sensor_id;sensor_type;location;lat;lon;timestamp;pressure;altitude;pressure_sealevel;temperature;humidity
14242;BME280;7205;50.864;12.766;2023-02-03T00:01:24;98393.69;;;4.07;100.00
14242;BME280;7205;50.864;12.766;2023-02-03T00:03:50;98391.19;;;4.06;100.00
14242;BME280;7205;50.864;12.766;2023-02-03T00:06:17;98387.78;;;4.05;100.00
14242;BME280;7205;50.864;12.766;2023-02-03T00:08:45;98382.75;;;4.02;100.00
14242;BME280;7205;50.864;12.766;2023-02-03T00:11:12;98376.84;;;4.00;100.00
14242;BME280;7205;50.864;12.766;2023-02-03T00:13:39;98371.03;;;3.97;100.00
14242;BME280;7205;50.864;12.766;2023-02-03T00:16:06;98378.13;;;3.95;100.00
14242;BME280;7205;50.864;12.766;2023-02-03T00:18:34;98370.41;;;3.93;100.00
14242;BME280;7205;50.864;12.766;2023-02-03T00:21:01;98367.81;;;3.93;100.00
14242;BME280;7205;50.864;12.766;2023-02-03T00:23:27;98357.59;;;3.90;100.00
14242;BME280;7205;50.864;12.766;2023-02-03T00:25:56;98343.81;;;3.88;100.00
14242;BME280;7205;50.864;12.766;2023-02-03T00:28:23;98345.59;;;3.88;100.00
14242;BME280;7205;50.864;12.766;2023-02-03T00:30:52;98344.75;;;3.87;100.00
14242;BME280;7205;50.864;12.766;2023-02-03T00:33:19;98337.88;;;3.86;100.00
14242;BME280;7205;50.864;12.766;2023-02-03T00:35:47;98339.50;;;3.87;100.00
14242;BME280;7205;50.864;12.766;2023-02-03T00:38:15;98328.25;;;3.87;100.00
14242;BME280;7205;50.864;12.766;2023-02-03T00:40:41;98318.63;;;3.87;100.00
14242;BME280;7205;50.864;12.766;2023-02-03T00:43:08;98319.47;;;3.88;100.00
14242;BME280;7205;50.864;12.766;2023-02-03T00:45:35;98314.97;;;3.90;100.00
14242;BME280;7205;50.864;12.766;2023-02-03T00:48:02;98311.38;;;3.91;100.00
14242;BME280;7205;50.864;12.766;2023-02-03T00:50:29;98306.75;;;3.94;100.00
14242;BME280;7205;50.864;12.766;2023-02-03T00:52:57;98304.75;;;3.98;100.00
14242;BME280;7205;50.864;12.766;2023-02-03T00:55:24;98303.69;;;4.00;100.00
14242;BME280;7205;50.864;12.766;2023-02-03T00:57:51;98301.78;;;4.02;100.00
14242;BME280;7205;50.864;12.766;2023-02-03T01:00:19;98298.22;;;4.03;100.00
14242;BME280;7205;50.864;12.766;2023-02-03T01:02:46;98291.91;;;4.06;100.00
14242;BME280;7205;50.864;12.766;2023-02-03T01:05:13;98284.56;;;4.11;100.00
14242;BME280;7205;50.864;12.766;2023-02-03T01:07:40;98276.47;;;4.14;100.00
14242;BME280;7205;50.864;12.766;2023-02-03T01:10:09;98277.91;;;4.18;100.00
14242;BME280;7205;50.864;12.766;2023-02-03T01:12:36;98261.19;;;4.20;100.00
14242;BME280;7205;50.864;12.766;2023-02-03T01:15:04;98257.47;;;4.23;100.00
14242;BME280;7205;50.864;12.766;2023-02-03T01:17:30;98246.78;;;4.26;100.00
14242;BME280;7205;50.864;12.766;2023-02-03T01:19:57;98234.41;;;4.28;100.00
14242;BME280;7205;50.864;12.766;2023-02-03T01:22:24;98232.41;;;4.31;100.00
14242;BME280;7205;50.864;12.766;2023-02-03T01:24:51;98229.53;;;4.34;100.00
14242;BME280;7205;50.864;12.766;2023-02-03T01:27:19;98224.06;;;4.37;100.00
14242;BME280;7205;50.864;12.766;2023-02-03T01:29:47;98224.78;;;4.39;100.00
14242;BME280;7205;50.864;12.766;2023-02-03T01:32:14;98221.09;;;4.42;100.00
14242;BME280;7205;50.864;12.766;2023-02-03T01:34:40;98226.06;;;4.45;100.00
14242;BME280;7205;50.864;12.766;2023-02-03T01:37:07;98233.66;;;4.48;100.00
14242;BME280;7205;50.864;12.766;2023-02-03T01:39:34;98213.47;;;4.50;100.00
14242;BME280;7205;50.864;12.766;2023-02-03T01:42:01;98218.56;;;4.51;100.00
14242;BME280;7205;50.864;12.766;2023-02-03T01:44:41;98212.25;;;4.54;100.00
14242;BME280;7205;50.864;12.766;2023-02-03T01:47:18;98215.69;;;4.54;100.00
14242;BME280;7205;50.864;12.766;2023-02-03T01:49:52;98223.41;;;4.56;100.00
14242;BME280;7205;50.864;12.766;2023-02-03T01:52:21;98209.41;;;4.57;100.00
14242;BME280;7205;50.864;12.766;2023-02-03T01:54:49;98212.69;;;4.59;100.00
14242;BME280;7205;50.864;12.766;2023-02-03T01:57:20;98206.41;;;4.61;100.00
14242;BME280;7205;50.864;12.766;2023-02-03T01:59:51;98197.59;;;4.62;100.00
14242;BME280;7205;50.864;12.766;2023-02-03T02:02:19;98194.19;;;4.62;100.00
14242;BME280;7205;50.864;12.766;2023-02-03T02:04:52;98171.91;;;4.67;100.00
14242;BME280;7205;50.864;12.766;2023-02-03T02:07:21;98181.28;;;4.70;100.00
14242;BME280;7205;50.864;12.766;2023-02-03T02:09:48;98184.75;;;4.70;100.00
14242;BME280;7205;50.864;12.766;2023-02-03T02:12:16;98193.16;;;4.74;100.00
14242;BME280;7205;50.864;12.766;2023-02-03T02:14:43;98200.50;;;4.80;100.00
14242;BME280;7205;50.864;12.766;2023-02-03T02:17:20;98207.25;;;4.82;100.00
14242;BME280;7205;50.864;12.766;2023-02-03T02:23:10;98186.66;;;4.89;100.00
14242;BME280;7205;50.864;12.766;2023-02-03T02:25:57;98190.81;;;4.91;100.00
14242;BME280;7205;50.864;12.766;2023-02-03T02:31:42;98184.41;;;4.95;100.00
14242;BME280;7205;50.864;12.766;2023-02-03T02:34:18;98186.03;;;4.96;100.00
14242;BME280;7205;50.864;12.766;2023-02-03T02:36:54;98177.22;;;4.97;100.00
14242;BME280;7205;50.864;12.766;2023-02-03T02:39:32;98189.94;;;5.02;100.00
14242;BME280;7205;50.864;12.766;2023-02-03T02:42:06;98160.31;;;5.01;100.00
14242;BME280;7205;50.864;12.766;2023-02-03T02:44:37;98166.25;;;5.03;100.00
14242;BME280;7205;50.864;12.766;2023-02-03T02:47:10;98163.38;;;5.06;100.00
14242;BME280;7205;50.864;12.766;2023-02-03T02:49:45;98159.66;;;5.09;100.00
14242;BME280;7205;50.864;12.766;2023-02-03T02:52:14;98161.22;;;5.11;100.00
14242;BME280;7205;50.864;12.766;2023-02-03T02:54:47;98155.72;;;5.14;100.00
14242;BME280;7205;50.864;12.766;2023-02-03T02:57:16;98150.22;;;5.18;100.00
14242;BME280;7205;50.864;12.766;2023-02-03T02:59:44;98158.78;;;5.20;100.00
14242;BME280;7205;50.864;12.766;2023-02-03T03:02:13;98142.81;;;5.23;100.00
14242;BME280;7205;50.864;12.766;2023-02-03T03:04:41;98152.34;;;5.24;100.00
14242;BME280;7205;50.864;12.766;2023-02-03T03:07:14;98142.72;;;5.24;100.00
14242;BME280;7205;50.864;12.766;2023-02-03T03:09:45;98140.91;;;5.25;100.00
14242;BME280;7205;50.864;12.766;2023-02-03T03:12:16;98152.91;;;5.27;100.00
14242;BME280;7205;50.864;12.766;2023-02-03T03:14:49;98146.69;;;5.28;100.00
14242;BME280;7205;50.864;12.766;2023-02-03T03:17:21;98154.28;;;5.31;100.00
14242;BME280;7205;50.864;12.766;2023-02-03T03:19:53;98154.28;;;5.31;100.00
14242;BME280;7205;50.864;12.766;2023-02-03T03:22:24;98145.38;;;5.34;100.00
14242;BME280;7205;50.864;12.766;2023-02-03T03:24:55;98147.97;;;5.34;100.00
14242;BME280;7205;50.864;12.766;2023-02-03T03:27:27;98151.44;;;5.34;100.00
14242;BME280;7205;50.864;12.766;2023-02-03T03:29:59;98151.44;;;5.34;100.00
14242;BME280;7205;50.864;12.766;2023-02-03T03:32:29;98154.72;;;5.36;100.00
14242;BME280;7205;50.864;12.766;2023-02-03T03:34:57;98139.03;;;5.36;100.00
14242;BME280;7205;50.864;12.766;2023-02-03T03:37:31;98125.94;;;5.36;100.00
14242;BME280;7205;50.864;12.766;2023-02-03T03:40:01;98136.28;;;5.38;100.00
14242;BME280;7205;50.864;12.766;2023-02-03T03:42:36;98131.75;;;5.40;100.00
14242;BME280;7205;50.864;12.766;2023-02-03T03:45:06;98119.63;;;5.39;100.00
14242;BME280;7205;50.864;12.766;2023-02-03T03:47:39;98142.22;;;5.40;100.00
14242;BME280;7205;50.864;12.766;2023-02-03T03:50:11;98136.72;;;5.43;100.00
14242;BME280;7205;50.864;12.766;2023-02-03T03:52:42;98137.53;;;5.43;100.00
14242;BME280;7205;50.864;12.766;2023-02-03T03:55:11;98136.59;;;5.44;100.00
14242;BME280;7205;50.864;12.766;2023-02-03T03:57:42;98133.84;;;5.46;100.00
14242;BME280;7205;50.864;12.766;2023-02-03T04:00:13;98130.97;;;5.49;100.00
14242;BME280;7205;50.864;12.766;2023-02-03T04:02:45;98112.38;;;5.52;100.00
14242;BME280;7205;50.864;12.766;2023-02-03T04:05:13;98106.06;;;5.54;100.00
14242;BME280;7205;50.864;12.766;2023-02-03T04:07:41;98092.81;;;5.56;100.00
14242;BME280;7205;50.864;12.766;2023-02-03T04:10:15;98084.00;;;5.57;100.00
14242;BME280;7205;50.864;12.766;2023-02-03T04:12:43;98079.44;;;5.59;100.00
14242;BME280;7205;50.864;12.766;2023-02-03T04:15:10;98084.56;;;5.60;100.00
14242;BME280;7205;50.864;12.766;2023-02-03T04:17:37;98071.19;;;5.63;100.00
14242;BME280;7205;50.864;12.766;2023-02-03T04:20:05;98060.44;;;5.66;100.00
14242;BME280;7205;50.864;12.766;2023-02-03T04:22:32;98068.03;;;5.69;100.00
14242;BME280;7205;50.864;12.766;2023-02-03T04:24:59;98063.63;;;5.70;100.00
14242;BME280;7205;50.864;12.766;2023-02-03T04:27:26;98052.84;;;5.73;100.00
14242;BME280;7205;50.864;12.766;2023-02-03T04:29:53;98056.19;;;5.75;100.00
14242;BME280;7205;50.864;12.766;2023-02-03T04:32:20;98056.88;;;5.77;100.00
14242;BME280;7205;50.864;12.766;2023-02-03T04:34:47;98055.78;;;5.79;100.00
14242;BME280;7205;50.864;12.766;2023-02-03T04:37:15;98055.66;;;5.81;100.00
14242;BME280;7205;50.864;12.766;2023-02-03T04:39:41;98071.28;;;5.82;100.00
14242;BME280;7205;50.864;12.766;2023-02-03T04:42:08;98076.38;;;5.84;100.00
14242;BME280;7205;50.864;12.766;2023-02-03T04:44:35;98074.59;;;5.84;100.00
14242;BME280;7205;50.864;12.766;2023-02-03T04:47:02;98090.19;;;5.86;100.00
14242;BME280;7205;50.864;12.766;2023-02-03T04:49:28;98079.28;;;5.90;100.00
14242;BME280;7205;50.864;12.766;2023-02-03T04:51:55;98092.94;;;5.94;100.00
14242;BME280;7205;50.864;12.766;2023-02-03T04:54:23;98086.59;;;5.96;100.00
14242;BME280;7205;50.864;12.766;2023-02-03T04:56:50;98089.78;;;6.00;100.00
14242;BME280;7205;50.864;12.766;2023-02-03T04:59:17;98083.59;;;6.01;100.00
14242;BME280;7205;50.864;12.766;2023-02-03T05:01:43;98089.50;;;6.03;100.00
14242;BME280;7205;50.864;12.766;2023-02-03T05:04:10;98065.66;;;6.06;100.00
14242;BME280;7205;50.864;12.766;2023-02-03T05:06:37;98073.38;;;6.07;100.00
14242;BME280;7205;50.864;12.766;2023-02-03T05:09:04;98091.59;;;6.09;100.00
14242;BME280;7205;50.864;12.766;2023-02-03T05:11:32;98092.44;;;6.09;100.00
14242;BME280;7205;50.864;12.766;2023-02-03T05:13:59;98073.09;;;6.10;100.00
14242;BME280;7205;50.864;12.766;2023-02-03T05:16:26;98071.31;;;6.11;100.00
14242;BME280;7205;50.864;12.766;2023-02-03T05:18:52;98060.00;;;6.10;100.00
14242;BME280;7205;50.864;12.766;2023-02-03T05:21:19;98052.28;;;6.09;100.00
14242;BME280;7205;50.864;12.766;2023-02-03T05:23:46;98059.16;;;6.10;100.00
14242;BME280;7205;50.864;12.766;2023-02-03T05:26:13;98060.00;;;6.10;100.00
14242;BME280;7205;50.864;12.766;2023-02-03T05:28:41;98046.88;;;6.10;100.00
14242;BME280;7205;50.864;12.766;2023-02-03T05:31:07;98038.19;;;6.10;100.00
14242;BME280;7205;50.864;12.766;2023-02-03T05:33:34;98026.91;;;6.09;100.00
14242;BME280;7205;50.864;12.766;2023-02-03T05:36:01;98014.03;;;6.06;100.00
14242;BME280;7205;50.864;12.766;2023-02-03T05:38:28;98020.13;;;6.07;100.00
14242;BME280;7205;50.864;12.766;2023-02-03T05:40:54;98014.88;;;6.07;100.00
14242;BME280;7205;50.864;12.766;2023-02-03T05:43:39;98017.50;;;6.07;100.00
14242;BME280;7205;50.864;12.766;2023-02-03T05:46:07;98028.69;;;6.09;100.00
14242;BME280;7205;50.864;12.766;2023-02-03T05:48:34;98033.63;;;6.12;100.00
14242;BME280;7205;50.864;12.766;2023-02-03T05:51:00;98020.53;;;6.12;100.00
14242;BME280;7205;50.864;12.766;2023-02-03T05:53:27;98012.66;;;6.12;100.00
14242;BME280;7205;50.864;12.766;2023-02-03T05:55:54;97999.41;;;6.13;100.00
14242;BME280;7205;50.864;12.766;2023-02-03T05:58:21;98017.78;;;6.13;100.00
14242;BME280;7205;50.864;12.766;2023-02-03T06:00:48;98012.38;;;6.15;100.00
14242;BME280;7205;50.864;12.766;2023-02-03T06:03:16;98022.72;;;6.16;100.00
14242;BME280;7205;50.864;12.766;2023-02-03T06:05:42;98019.03;;;6.19;100.00
14242;BME280;7205;50.864;12.766;2023-02-03T06:08:09;98038.22;;;6.19;100.00
14242;BME280;7205;50.864;12.766;2023-02-03T06:10:36;98029.22;;;6.22;100.00
14242;BME280;7205;50.864;12.766;2023-02-03T06:13:08;98033.22;;;6.26;100.00
14242;BME280;7205;50.864;12.766;2023-02-03T06:15:35;98031.97;;;6.30;100.00
14242;BME280;7205;50.864;12.766;2023-02-03T06:18:02;98020.94;;;6.26;100.00
14242;BME280;7205;50.864;12.766;2023-02-03T06:20:30;98008.66;;;6.27;100.00
14242;BME280;7205;50.864;12.766;2023-02-03T06:22:57;98000.38;;;6.31;100.00
14242;BME280;7205;50.864;12.766;2023-02-03T06:25:24;97993.47;;;6.30;100.00
14242;BME280;7205;50.864;12.766;2023-02-03T06:27:51;97992.50;;;6.31;100.00
14242;BME280;7205;50.864;12.766;2023-02-03T06:30:18;97981.06;;;6.32;100.00
14242;BME280;7205;50.864;12.766;2023-02-03T06:32:48;97988.09;;;6.32;100.00
14242;BME280;7205;50.864;12.766;2023-02-03T06:35:15;97991.56;;;6.32;100.00
14242;BME280;7205;50.864;12.766;2023-02-03T06:37:43;97981.88;;;6.33;100.00
14242;BME280;7205;50.864;12.766;2023-02-03T06:40:11;97983.53;;;6.34;100.00
14242;BME280;7205;50.864;12.766;2023-02-03T06:42:38;97974.84;;;6.33;100.00
14242;BME280;7205;50.864;12.766;2023-02-03T06:45:05;97978.44;;;6.32;100.00
14242;BME280;7205;50.864;12.766;2023-02-03T06:47:32;97968.75;;;6.33;100.00
14242;BME280;7205;50.864;12.766;2023-02-03T06:50:00;97959.38;;;6.30;100.00
14242;BME280;7205;50.864;12.766;2023-02-03T06:52:26;97960.78;;;6.34;100.00
14242;BME280;7205;50.864;12.766;2023-02-03T06:54:54;97956.19;;;6.36;100.00
14242;BME280;7205;50.864;12.766;2023-02-03T06:57:21;97957.03;;;6.37;100.00
14242;BME280;7205;50.864;12.766;2023-02-03T06:59:48;97960.19;;;6.41;100.00
14242;BME280;7205;50.864;12.766;2023-02-03T07:02:15;97950.41;;;6.43;100.00
14242;BME280;7205;50.864;12.766;2023-02-03T07:04:42;97943.47;;;6.42;100.00
14242;BME280;7205;50.864;12.766;2023-02-03T07:07:09;97942.81;;;6.40;100.00
14242;BME280;7205;50.864;12.766;2023-02-03T07:09:36;97932.34;;;6.40;100.00
14242;BME280;7205;50.864;12.766;2023-02-03T07:12:05;97942.53;;;6.43;100.00
14242;BME280;7205;50.864;12.766;2023-02-03T07:14:32;97940.72;;;6.43;100.00
14242;BME280;7205;50.864;12.766;2023-02-03T07:17:00;97932.72;;;6.45;100.00
14242;BME280;7205;50.864;12.766;2023-02-03T07:19:27;97928.16;;;6.47;100.00
14242;BME280;7205;50.864;12.766;2023-02-03T07:21:54;97915.19;;;6.45;100.00
14242;BME280;7205;50.864;12.766;2023-02-03T07:24:21;97915.03;;;6.47;100.00
14242;BME280;7205;50.864;12.766;2023-02-03T07:26:48;97914.88;;;6.48;100.00
14242;BME280;7205;50.864;12.766;2023-02-03T07:29:16;97923.31;;;6.52;100.00
14242;BME280;7205;50.864;12.766;2023-02-03T07:31:43;97915.97;;;6.55;100.00
14242;BME280;7205;50.864;12.766;2023-02-03T07:34:09;97919.28;;;6.57;100.00
14242;BME280;7205;50.864;12.766;2023-02-03T07:36:36;97908.78;;;6.57;100.00
14242;BME280;7205;50.864;12.766;2023-02-03T07:39:03;97919.84;;;6.61;100.00
14242;BME280;7205;50.864;12.766;2023-02-03T07:41:30;97899.53;;;6.63;100.00
14242;BME280;7205;50.864;12.766;2023-02-03T07:43:57;97905.47;;;6.65;100.00
14242;BME280;7205;50.864;12.766;2023-02-03T07:46:25;97895.94;;;6.64;100.00
14242;BME280;7205;50.864;12.766;2023-02-03T07:48:51;97902.00;;;6.64;100.00
14242;BME280;7205;50.864;12.766;2023-02-03T07:51:18;97901.88;;;6.66;100.00
14242;BME280;7205;50.864;12.766;2023-02-03T07:53:45;97885.13;;;6.67;100.00
14242;BME280;7205;50.864;12.766;2023-02-03T07:56:12;97902.56;;;6.68;100.00
14242;BME280;7205;50.864;12.766;2023-02-03T07:58:39;97902.94;;;6.73;100.00
14242;BME280;7205;50.864;12.766;2023-02-03T08:01:09;97910.66;;;6.74;100.00
14242;BME280;7205;50.864;12.766;2023-02-03T08:03:38;97899.34;;;6.74;100.00
14242;BME280;7205;50.864;12.766;2023-02-03T08:06:05;97908.72;;;6.76;100.00
14242;BME280;7205;50.864;12.766;2023-02-03T08:08:32;97891.16;;;6.77;100.00
14242;BME280;7205;50.864;12.766;2023-02-03T08:10:59;97888.28;;;6.80;100.00
14242;BME280;7205;50.864;12.766;2023-02-03T08:13:26;97893.66;;;6.78;100.00
14242;BME280;7205;50.864;12.766;2023-02-03T08:15:52;97892.53;;;6.81;100.00
14242;BME280;7205;50.864;12.766;2023-02-03T08:18:19;97884.81;;;6.79;100.00
14242;BME280;7205;50.864;12.766;2023-02-03T08:20:48;97871.69;;;6.79;100.00
14242;BME280;7205;50.864;12.766;2023-02-03T08:23:15;97880.53;;;6.78;100.00
14242;BME280;7205;50.864;12.766;2023-02-03T08:25:42;97877.78;;;6.80;100.00
14242;BME280;7205;50.864;12.766;2023-02-03T08:28:09;97873.19;;;6.82;100.00
14242;BME280;7205;50.864;12.766;2023-02-03T08:30:36;97866.84;;;6.84;100.00
14242;BME280;7205;50.864;12.766;2023-02-03T08:33:02;97883.13;;;6.88;100.00
14242;BME280;7205;50.864;12.766;2023-02-03T08:35:29;97879.38;;;6.90;100.00
14242;BME280;7205;50.864;12.766;2023-02-03T08:37:57;97876.59;;;6.92;100.00
14242;BME280;7205;50.864;12.766;2023-02-03T08:40:24;97861.22;;;6.97;100.00
14242;BME280;7205;50.864;12.766;2023-02-03T08:42:51;97868.69;;;7.01;100.00
14242;BME280;7205;50.864;12.766;2023-02-03T08:45:18;97867.69;;;7.02;100.00
14242;BME280;7205;50.864;12.766;2023-02-03T08:47:44;97858.72;;;7.05;100.00
14242;BME280;7205;50.864;12.766;2023-02-03T08:50:11;97853.16;;;7.08;100.00
14242;BME280;7205;50.864;12.766;2023-02-03T08:52:39;97835.31;;;7.11;100.00
14242;BME280;7205;50.864;12.766;2023-02-03T08:55:07;97833.22;;;7.15;100.00
14242;BME280;7205;50.864;12.766;2023-02-03T08:57:34;97847.00;;;7.17;100.00
14242;BME280;7205;50.864;12.766;2023-02-03T09:00:03;97841.59;;;7.18;100.00
14242;BME280;7205;50.864;12.766;2023-02-03T09:02:29;97840.50;;;7.21;100.00
14242;BME280;7205;50.864;12.766;2023-02-03T09:04:56;97842.13;;;7.22;100.00
14242;BME280;7205;50.864;12.766;2023-02-03T09:07:23;97847.09;;;7.25;100.00
14242;BME280;7205;50.864;12.766;2023-02-03T09:09:50;97842.50;;;7.27;100.00
14242;BME280;7205;50.864;12.766;2023-02-03T09:12:18;97830.91;;;7.29;100.00
14242;BME280;7205;50.864;12.766;2023-02-03T09:14:45;97824.66;;;7.30;100.00
14242;BME280;7205;50.864;12.766;2023-02-03T09:17:12;97800.22;;;7.30;100.00
14242;BME280;7205;50.864;12.766;2023-02-03T09:19:38;97808.75;;;7.32;100.00
14242;BME280;7205;50.864;12.766;2023-02-03T09:22:05;97801.38;;;7.35;100.00
14242;BME280;7205;50.864;12.766;2023-02-03T09:24:32;97776.78;;;7.36;100.00
14242;BME280;7205;50.864;12.766;2023-02-03T09:26:59;97790.06;;;7.35;100.00
14242;BME280;7205;50.864;12.766;2023-02-03T09:29:27;97793.06;;;7.40;100.00
14242;BME280;7205;50.864;12.766;2023-02-03T09:31:54;97768.75;;;7.38;100.00
14242;BME280;7205;50.864;12.766;2023-02-03T09:34:21;97763.19;;;7.41;100.00
14242;BME280;7205;50.864;12.766;2023-02-03T09:36:48;97747.13;;;7.44;100.00
14242;BME280;7205;50.864;12.766;2023-02-03T09:39:15;97747.81;;;7.46;100.00
14242;BME280;7205;50.864;12.766;2023-02-03T09:42:06;97764.09;;;7.49;100.00
14242;BME280;7205;50.864;12.766;2023-02-03T09:44:41;97761.16;;;7.52;100.00
14242;BME280;7205;50.864;12.766;2023-02-03T09:47:12;97746.22;;;7.53;100.00
14242;BME280;7205;50.864;12.766;2023-02-03T09:49:42;97752.94;;;7.55;100.00
14242;BME280;7205;50.864;12.766;2023-02-03T09:52:16;97756.25;;;7.57;100.00
14242;BME280;7205;50.864;12.766;2023-02-03T09:54:49;97750.00;;;7.58;100.00
14242;BME280;7205;50.864;12.766;2023-02-03T09:57:21;97754.81;;;7.63;100.00
14242;BME280;7205;50.864;12.766;2023-02-03T09:59:50;97752.34;;;7.61;100.00
14242;BME280;7205;50.864;12.766;2023-02-03T10:02:26;97749.56;;;7.63;100.00
14242;BME280;7205;50.864;12.766;2023-02-03T10:04:58;97748.41;;;7.65;100.00
14242;BME280;7205;50.864;12.766;2023-02-03T10:07:33;97754.50;;;7.66;100.00
14242;BME280;7205;50.864;12.766;2023-02-03T10:10:08;97755.19;;;7.68;100.00
14242;BME280;7205;50.864;12.766;2023-02-03T10:12:57;97744.53;;;7.70;100.00
14242;BME280;7205;50.864;12.766;2023-02-03T10:16:01;97747.00;;;7.71;100.00
14242;BME280;7205;50.864;12.766;2023-02-03T10:18:35;97735.66;;;7.71;100.00
14242;BME280;7205;50.864;12.766;2023-02-03T10:21:12;97723.03;;;7.74;100.00
14242;BME280;7205;50.864;12.766;2023-02-03T10:23:42;97727.59;;;7.72;100.00
14242;BME280;7205;50.864;12.766;2023-02-03T10:26:15;97722.06;;;7.75;100.00
14242;BME280;7205;50.864;12.766;2023-02-03T10:28:49;97721.38;;;7.73;100.00
14242;BME280;7205;50.864;12.766;2023-02-03T10:31:20;97714.81;;;7.77;100.00
14242;BME280;7205;50.864;12.766;2023-02-03T10:33:52;97719.28;;;7.77;100.00
14242;BME280;7205;50.864;12.766;2023-02-03T10:36:22;97720.91;;;7.78;100.00
14242;BME280;7205;50.864;12.766;2023-02-03T10:38:55;97716.81;;;7.75;100.00
14242;BME280;7205;50.864;12.766;2023-02-03T10:41:24;97707.25;;;7.74;100.00
14242;BME280;7205;50.864;12.766;2023-02-03T10:43:52;97701.63;;;7.69;100.00
14242;BME280;7205;50.864;12.766;2023-02-03T10:46:26;97696.69;;;7.66;100.00
14242;BME280;7205;50.864;12.766;2023-02-03T10:48:53;97677.94;;;7.61;100.00
14242;BME280;7205;50.864;12.766;2023-02-03T10:51:22;97673.31;;;7.55;100.00
14242;BME280;7205;50.864;12.766;2023-02-03T10:53:50;97665.72;;;7.52;100.00
14242;BME280;7205;50.864;12.766;2023-02-03T10:56:20;97657.66;;;7.45;100.00
14242;BME280;7205;50.864;12.766;2023-02-03T10:58:50;97662.38;;;7.42;100.00
14242;BME280;7205;50.864;12.766;2023-02-03T11:01:19;97659.75;;;7.42;100.00
14242;BME280;7205;50.864;12.766;2023-02-03T11:03:56;97664.38;;;7.40;100.00
14242;BME280;7205;50.864;12.766;2023-02-03T11:06:24;97660.06;;;7.39;100.00
14242;BME280;7205;50.864;12.766;2023-02-03T11:08:51;97672.53;;;7.37;100.00
14242;BME280;7205;50.864;12.766;2023-02-03T11:11:23;97664.66;;;7.37;100.00
14242;BME280;7205;50.864;12.766;2023-02-03T11:13:55;97676.47;;;7.33;100.00
14242;BME280;7205;50.864;12.766;2023-02-03T11:16:26;97681.03;;;7.31;100.00
14242;BME280;7205;50.864;12.766;2023-02-03T11:18:56;97667.91;;;7.31;100.00
14242;BME280;7205;50.864;12.766;2023-02-03T11:21:26;97669.69;;;7.30;100.00
14242;BME280;7205;50.864;12.766;2023-02-03T11:23:56;97666.41;;;7.28;100.00
14242;BME280;7205;50.864;12.766;2023-02-03T11:26:28;97662.97;;;7.28;100.00
14242;BME280;7205;50.864;12.766;2023-02-03T11:29:05;97663.78;;;7.28;100.00
14242;BME280;7205;50.864;12.766;2023-02-03T11:31:35;97656.72;;;7.29;100.00
14242;BME280;7205;50.864;12.766;2023-02-03T11:34:05;97685.63;;;7.29;100.00
14242;BME280;7205;50.864;12.766;2023-02-03T11:36:33;97665.75;;;7.26;100.00
14242;BME280;7205;50.864;12.766;2023-02-03T11:39:17;97664.91;;;7.26;100.00
14242;BME280;7205;50.864;12.766;2023-02-03T11:41:45;97657.69;;;7.20;100.00
14242;BME280;7205;50.864;12.766;2023-02-03T11:44:17;97648.28;;;7.17;100.00
14242;BME280;7205;50.864;12.766;2023-02-03T11:46:46;97652.69;;;7.17;100.00
14242;BME280;7205;50.864;12.766;2023-02-03T11:52:22;97633.69;;;7.15;100.00
14242;BME280;7205;50.864;12.766;2023-02-03T11:54:58;97642.81;;;7.11;100.00
14242;BME280;7205;50.864;12.766;2023-02-03T11:57:37;97656.09;;;7.09;100.00
14242;BME280;7205;50.864;12.766;2023-02-03T12:00:21;97636.91;;;7.09;100.00
14242;BME280;7205;50.864;12.766;2023-02-03T12:03:24;97640.19;;;7.11;100.00
14242;BME280;7205;50.864;12.766;2023-02-03T12:06:04;97631.50;;;7.10;100.00
14242;BME280;7205;50.864;12.766;2023-02-03T12:09:11;97621.00;;;7.10;100.00
14242;BME280;7205;50.864;12.766;2023-02-03T12:12:00;97625.72;;;7.07;100.00
14242;BME280;7205;50.864;12.766;2023-02-03T12:14:43;97623.78;;;7.09;100.00
14242;BME280;7205;50.864;12.766;2023-02-03T12:17:28;97619.03;;;7.12;100.00
14242;BME280;7205;50.864;12.766;2023-02-03T12:20:10;97599.84;;;7.12;100.00
14242;BME280;7205;50.864;12.766;2023-02-03T12:22:45;97624.28;;;7.12;100.00
14242;BME280;7205;50.864;12.766;2023-02-03T12:25:26;97616.25;;;7.14;100.00
14242;BME280;7205;50.864;12.766;2023-02-03T12:28:05;97626.59;;;7.15;100.00
14242;BME280;7205;50.864;12.766;2023-02-03T12:30:38;97628.44;;;7.15;100.00
14242;BME280;7205;50.864;12.766;2023-02-03T12:33:11;97618.72;;;7.15;100.00
14242;BME280;7205;50.864;12.766;2023-02-03T12:35:46;97631.84;;;7.15;100.00
14242;BME280;7205;50.864;12.766;2023-02-03T12:38:21;97632.84;;;7.14;100.00
14242;BME280;7205;50.864;12.766;2023-02-03T12:40:55;97634.78;;;7.12;100.00
14242;BME280;7205;50.864;12.766;2023-02-03T12:43:29;97625.44;;;7.10;100.00
14242;BME280;7205;50.864;12.766;2023-02-03T12:46:08;97618.53;;;7.09;100.00
14242;BME280;7205;50.864;12.766;2023-02-03T12:48:43;97613.44;;;7.07;100.00
14242;BME280;7205;50.864;12.766;2023-02-03T12:51:14;97617.03;;;7.06;100.00
14242;BME280;7205;50.864;12.766;2023-02-03T12:53:47;97599.19;;;7.10;100.00
14242;BME280;7205;50.864;12.766;2023-02-03T12:56:21;97600.16;;;7.09;100.00
14242;BME280;7205;50.864;12.766;2023-02-03T12:58:54;97588.81;;;7.08;100.00
14242;BME280;7205;50.864;12.766;2023-02-03T13:01:23;97593.41;;;7.06;100.00
14242;BME280;7205;50.864;12.766;2023-02-03T13:03:57;97587.66;;;7.03;100.00
14242;BME280;7205;50.864;12.766;2023-02-03T13:06:30;97585.97;;;7.02;100.00
14242;BME280;7205;50.864;12.766;2023-02-03T13:09:02;97591.22;;;7.02;100.00
14242;BME280;7205;50.864;12.766;2023-02-03T13:11:37;97588.59;;;7.02;100.00
14242;BME280;7205;50.864;12.766;2023-02-03T13:14:13;97602.72;;;7.01;100.00
14242;BME280;7205;50.864;12.766;2023-02-03T13:16:43;97602.72;;;7.01;100.00
14242;BME280;7205;50.864;12.766;2023-02-03T13:19:17;97603.56;;;7.01;100.00
14242;BME280;7205;50.864;12.766;2023-02-03T13:21:47;97601.56;;;7.03;100.00
14242;BME280;7205;50.864;12.766;2023-02-03T13:24:15;97588.31;;;7.05;100.00